KCEC/CEC METAR and TAF weather

Enter ICAO airport designator
Station Type Date Time Source
KCEC METAR 2018/07/21 22:56 UTC NOAA

KCEC 212256Z AUTO 34009KT 9SM BKN042 OVC050 17/11 A2999 RMK AO2 SLP157 T01670111


Station Type Date Time Source
KCEC Decoded METAR 2018/07/21 22:56 UTC NOAA

CRESCENT CITY MC NAMARA, CA, United States (KCEC) 41-47N 124-14W
Jul 21, 2018 - 06:56 PM EDT / 2018.07.21 2256 UTC
Wind: from the NNW (340 degrees) at 10 MPH (9 KT):0
Visibility: 9 mile(s):0
Sky conditions: overcast
Temperature: 62.1 F (16.7 C)
Dew Point: 52.0 F (11.1 C)
Relative Humidity: 69%
Pressure (altimeter): 29.99 in. Hg (1015 hPa)
ob: KCEC 212256Z AUTO 34009KT 9SM BKN042 OVC050 17/11 A2999 RMK AO2 SLP157 T01670111
cycle: 23

Station Type Date Time Source
KCEC TAF 2018/07/21 18:42 UTC NOAA

TAF KCEC 211741Z 2118/2218 20006KT 6SM HZ FU BKN035
FM212000 32010KT 6SM HZ FU BKN035
FM220200 17006KT 6SM HZ SCT008 BKN040
FM220700 16003KT 5SM BR BKN005
FM221200 VRB03KT 3SM BR BKN003
FM221700 17005KT 6SM HZ SCT003 BKN040


Example: see airport list